Terminal Aerodrome Forecast
Issued by NWS

Home | Current Version | Previous Version | Graphics & Text | Print | Product List | Glossary On
Versions: 1 2 3 4 5 6 7 8 9 10 11 12 13
000
FTUS43 KOAX 302327
TAFCDR
TAF
KCDR 302327Z 0100/0124 36015G25KT P6SM SCT250
     FM010300 VRB03KT P6SM VCSH BKN050
     FM010900 22005KT P6SM BKN070
     FM011800 18008KT P6SM FEW070=

USA.gov is the U.S. government's official web portal to all federal, state and local government web resources and services.